sensor_id;sensor_type;location;lat;lon;timestamp;temperature;humidity
45096;DHT22;30858;51.108;8.068;2023-02-28T00:00:17;-3.10;99.90
45096;DHT22;30858;51.108;8.068;2023-02-28T00:02:44;-3.10;99.90
45096;DHT22;30858;51.108;8.068;2023-02-28T00:05:11;-3.20;99.90
45096;DHT22;30858;51.108;8.068;2023-02-28T00:07:38;-3.20;99.90
45096;DHT22;30858;51.108;8.068;2023-02-28T00:10:06;-3.30;99.90
45096;DHT22;30858;51.108;8.068;2023-02-28T00:12:33;-3.30;99.90
45096;DHT22;30858;51.108;8.068;2023-02-28T00:14:59;-3.30;99.90
45096;DHT22;30858;51.108;8.068;2023-02-28T00:17:24;-3.30;99.90
45096;DHT22;30858;51.108;8.068;2023-02-28T00:19:51;-3.40;99.90
45096;DHT22;30858;51.108;8.068;2023-02-28T00:22:18;-3.40;99.90
45096;DHT22;30858;51.108;8.068;2023-02-28T00:24:44;-3.50;99.90
45096;DHT22;30858;51.108;8.068;2023-02-28T00:27:10;-3.50;99.90
45096;DHT22;30858;51.108;8.068;2023-02-28T00:29:36;-3.50;99.90
45096;DHT22;30858;51.108;8.068;2023-02-28T00:32:02;-3.50;99.90
45096;DHT22;30858;51.108;8.068;2023-02-28T00:34:27;-3.50;99.90
45096;DHT22;30858;51.108;8.068;2023-02-28T00:36:53;-3.40;99.90
45096;DHT22;30858;51.108;8.068;2023-02-28T00:39:19;-3.30;99.90
45096;DHT22;30858;51.108;8.068;2023-02-28T00:41:45;-3.30;99.90
45096;DHT22;30858;51.108;8.068;2023-02-28T00:44:10;-3.20;99.90
45096;DHT22;30858;51.108;8.068;2023-02-28T00:46:36;-3.30;99.90
45096;DHT22;30858;51.108;8.068;2023-02-28T00:49:01;-3.30;99.90
45096;DHT22;30858;51.108;8.068;2023-02-28T00:51:27;-3.20;99.90
45096;DHT22;30858;51.108;8.068;2023-02-28T00:53:52;-3.20;99.90
45096;DHT22;30858;51.108;8.068;2023-02-28T00:56:18;-3.20;99.90
45096;DHT22;30858;51.108;8.068;2023-02-28T00:58:43;-3.10;99.90
45096;DHT22;30858;51.108;8.068;2023-02-28T01:01:09;-3.00;99.90
45096;DHT22;30858;51.108;8.068;2023-02-28T01:03:35;-3.00;99.90
45096;DHT22;30858;51.108;8.068;2023-02-28T01:06:00;-2.90;99.90
45096;DHT22;30858;51.108;8.068;2023-02-28T01:08:26;-2.90;99.90
45096;DHT22;30858;51.108;8.068;2023-02-28T01:10:52;-2.90;99.90
45096;DHT22;30858;51.108;8.068;2023-02-28T01:13:18;-3.00;99.90
45096;DHT22;30858;51.108;8.068;2023-02-28T01:15:55;-3.10;99.90
45096;DHT22;30858;51.108;8.068;2023-02-28T01:18:22;-3.20;99.90
45096;DHT22;30858;51.108;8.068;2023-02-28T01:20:48;-3.20;99.90
45096;DHT22;30858;51.108;8.068;2023-02-28T01:23:14;-3.30;99.90
45096;DHT22;30858;51.108;8.068;2023-02-28T01:25:39;-3.40;99.90
45096;DHT22;30858;51.108;8.068;2023-02-28T01:28:05;-3.30;99.90
45096;DHT22;30858;51.108;8.068;2023-02-28T01:30:31;-3.40;99.90
45096;DHT22;30858;51.108;8.068;2023-02-28T01:32:57;-3.30;99.90
45096;DHT22;30858;51.108;8.068;2023-02-28T01:35:23;-3.40;99.90
45096;DHT22;30858;51.108;8.068;2023-02-28T01:37:48;-3.50;99.90
45096;DHT22;30858;51.108;8.068;2023-02-28T01:40:14;-3.50;99.90
45096;DHT22;30858;51.108;8.068;2023-02-28T01:42:39;-3.60;99.90
45096;DHT22;30858;51.108;8.068;2023-02-28T01:47:55;-3.60;99.90
45096;DHT22;30858;51.108;8.068;2023-02-28T01:50:25;-3.50;99.90
45096;DHT22;30858;51.108;8.068;2023-02-28T01:52:54;-3.50;99.90
45096;DHT22;30858;51.108;8.068;2023-02-28T01:55:21;-3.40;99.90
45096;DHT22;30858;51.108;8.068;2023-02-28T01:57:51;-3.40;99.90
45096;DHT22;30858;51.108;8.068;2023-02-28T02:00:20;-3.40;99.90
45096;DHT22;30858;51.108;8.068;2023-02-28T02:02:49;-3.40;99.90
45096;DHT22;30858;51.108;8.068;2023-02-28T02:05:24;-3.50;99.90
45096;DHT22;30858;51.108;8.068;2023-02-28T02:07:55;-3.40;99.90
45096;DHT22;30858;51.108;8.068;2023-02-28T02:13:34;-3.50;99.90
45096;DHT22;30858;51.108;8.068;2023-02-28T02:16:23;-3.50;99.90
45096;DHT22;30858;51.108;8.068;2023-02-28T02:18:54;-3.60;99.90
45096;DHT22;30858;51.108;8.068;2023-02-28T02:37:50;-3.70;99.90
45096;DHT22;30858;51.108;8.068;2023-02-28T02:40:20;-3.80;99.90
45096;DHT22;30858;51.108;8.068;2023-02-28T02:43:08;-3.80;99.90
45096;DHT22;30858;51.108;8.068;2023-02-28T02:45:42;-3.80;99.90
45096;DHT22;30858;51.108;8.068;2023-02-28T02:48:12;-3.80;99.90
45096;DHT22;30858;51.108;8.068;2023-02-28T02:50:43;-3.70;99.90
45096;DHT22;30858;51.108;8.068;2023-02-28T02:53:10;-3.70;99.90
45096;DHT22;30858;51.108;8.068;2023-02-28T02:55:41;-3.70;99.90
45096;DHT22;30858;51.108;8.068;2023-02-28T02:58:12;-3.50;99.90
45096;DHT22;30858;51.108;8.068;2023-02-28T03:00:46;-3.40;99.90
45096;DHT22;30858;51.108;8.068;2023-02-28T03:03:14;-3.40;99.90
45096;DHT22;30858;51.108;8.068;2023-02-28T03:05:47;-3.30;99.90
45096;DHT22;30858;51.108;8.068;2023-02-28T03:08:13;-3.40;99.90
45096;DHT22;30858;51.108;8.068;2023-02-28T03:10:44;-3.30;99.90
45096;DHT22;30858;51.108;8.068;2023-02-28T03:22:03;-3.50;99.90
45096;DHT22;30858;51.108;8.068;2023-02-28T03:27:23;-3.70;99.90
45096;DHT22;30858;51.108;8.068;2023-02-28T03:30:04;-3.80;99.90
45096;DHT22;30858;51.108;8.068;2023-02-28T03:32:38;-3.80;99.90
45096;DHT22;30858;51.108;8.068;2023-02-28T03:35:18;-3.90;99.90
45096;DHT22;30858;51.108;8.068;2023-02-28T03:37:53;-3.90;99.90
45096;DHT22;30858;51.108;8.068;2023-02-28T03:40:23;-3.90;99.90
45096;DHT22;30858;51.108;8.068;2023-02-28T03:42:55;-4.00;99.90
45096;DHT22;30858;51.108;8.068;2023-02-28T03:45:26;-4.00;99.90
45096;DHT22;30858;51.108;8.068;2023-02-28T03:48:02;-3.90;99.90
45096;DHT22;30858;51.108;8.068;2023-02-28T03:50:34;-3.90;99.90
45096;DHT22;30858;51.108;8.068;2023-02-28T03:55:38;-4.00;99.90
45096;DHT22;30858;51.108;8.068;2023-02-28T03:58:11;-3.90;99.90
45096;DHT22;30858;51.108;8.068;2023-02-28T04:00:41;-3.90;99.90
45096;DHT22;30858;51.108;8.068;2023-02-28T04:03:09;-4.00;99.90
45096;DHT22;30858;51.108;8.068;2023-02-28T04:05:48;-4.00;99.90
45096;DHT22;30858;51.108;8.068;2023-02-28T04:08:15;-4.10;99.90
45096;DHT22;30858;51.108;8.068;2023-02-28T04:10:41;-4.30;99.90
45096;DHT22;30858;51.108;8.068;2023-02-28T04:13:08;-4.20;99.90
45096;DHT22;30858;51.108;8.068;2023-02-28T04:15:34;-4.30;99.90
45096;DHT22;30858;51.108;8.068;2023-02-28T04:17:59;-4.40;99.90
45096;DHT22;30858;51.108;8.068;2023-02-28T04:20:25;-4.20;99.90
45096;DHT22;30858;51.108;8.068;2023-02-28T04:22:50;-4.30;99.90
45096;DHT22;30858;51.108;8.068;2023-02-28T04:25:16;-4.40;99.90
45096;DHT22;30858;51.108;8.068;2023-02-28T04:27:41;-4.40;99.90
45096;DHT22;30858;51.108;8.068;2023-02-28T04:30:10;-4.50;99.90
45096;DHT22;30858;51.108;8.068;2023-02-28T04:32:36;-4.60;99.90
45096;DHT22;30858;51.108;8.068;2023-02-28T04:35:01;-4.60;99.90
45096;DHT22;30858;51.108;8.068;2023-02-28T04:37:27;-4.50;99.90
45096;DHT22;30858;51.108;8.068;2023-02-28T04:39:54;-4.50;99.90
45096;DHT22;30858;51.108;8.068;2023-02-28T04:42:20;-4.50;99.90
45096;DHT22;30858;51.108;8.068;2023-02-28T04:44:45;-4.60;99.90
45096;DHT22;30858;51.108;8.068;2023-02-28T04:47:12;-4.50;99.90
45096;DHT22;30858;51.108;8.068;2023-02-28T04:49:38;-4.50;99.90
45096;DHT22;30858;51.108;8.068;2023-02-28T04:52:03;-4.60;99.90
45096;DHT22;30858;51.108;8.068;2023-02-28T04:54:29;-4.60;99.90
45096;DHT22;30858;51.108;8.068;2023-02-28T04:56:55;-4.70;99.90
45096;DHT22;30858;51.108;8.068;2023-02-28T04:59:20;-4.60;99.90
45096;DHT22;30858;51.108;8.068;2023-02-28T05:01:47;-4.60;99.90
45096;DHT22;30858;51.108;8.068;2023-02-28T05:04:14;-4.60;99.90
45096;DHT22;30858;51.108;8.068;2023-02-28T05:06:39;-4.60;99.90
45096;DHT22;30858;51.108;8.068;2023-02-28T05:09:05;-4.60;99.90
45096;DHT22;30858;51.108;8.068;2023-02-28T05:11:32;-4.60;99.90
45096;DHT22;30858;51.108;8.068;2023-02-28T05:14:05;-4.60;99.90
45096;DHT22;30858;51.108;8.068;2023-02-28T05:16:31;-4.60;99.90
45096;DHT22;30858;51.108;8.068;2023-02-28T05:18:56;-4.50;99.90
45096;DHT22;30858;51.108;8.068;2023-02-28T05:21:27;-4.60;99.90
45096;DHT22;30858;51.108;8.068;2023-02-28T05:23:53;-4.70;99.90
45096;DHT22;30858;51.108;8.068;2023-02-28T05:26:20;-4.70;99.90
45096;DHT22;30858;51.108;8.068;2023-02-28T05:28:46;-4.70;99.90
45096;DHT22;30858;51.108;8.068;2023-02-28T05:31:12;-4.80;99.90
45096;DHT22;30858;51.108;8.068;2023-02-28T05:33:38;-4.80;99.90
45096;DHT22;30858;51.108;8.068;2023-02-28T05:36:04;-4.80;99.90
45096;DHT22;30858;51.108;8.068;2023-02-28T05:38:29;-4.80;99.90
45096;DHT22;30858;51.108;8.068;2023-02-28T05:40:55;-4.90;99.90
45096;DHT22;30858;51.108;8.068;2023-02-28T05:43:21;-4.90;99.90
45096;DHT22;30858;51.108;8.068;2023-02-28T05:45:47;-5.00;99.90
45096;DHT22;30858;51.108;8.068;2023-02-28T05:48:12;-5.00;99.90
45096;DHT22;30858;51.108;8.068;2023-02-28T05:50:38;-5.10;99.90
45096;DHT22;30858;51.108;8.068;2023-02-28T05:53:03;-5.20;99.90
45096;DHT22;30858;51.108;8.068;2023-02-28T05:55:29;-5.20;99.90
45096;DHT22;30858;51.108;8.068;2023-02-28T05:57:54;-5.20;99.90
45096;DHT22;30858;51.108;8.068;2023-02-28T06:00:21;-5.20;99.90
45096;DHT22;30858;51.108;8.068;2023-02-28T06:02:47;-5.30;99.90
45096;DHT22;30858;51.108;8.068;2023-02-28T06:05:14;-5.30;99.90
45096;DHT22;30858;51.108;8.068;2023-02-28T06:07:41;-5.20;99.90
45096;DHT22;30858;51.108;8.068;2023-02-28T06:10:06;-5.30;99.90
45096;DHT22;30858;51.108;8.068;2023-02-28T06:12:32;-5.10;99.90
45096;DHT22;30858;51.108;8.068;2023-02-28T06:14:58;-5.20;99.90
45096;DHT22;30858;51.108;8.068;2023-02-28T06:17:23;-5.20;99.90
45096;DHT22;30858;51.108;8.068;2023-02-28T06:19:49;-5.20;99.90
45096;DHT22;30858;51.108;8.068;2023-02-28T06:22:14;-5.20;99.90
45096;DHT22;30858;51.108;8.068;2023-02-28T06:24:40;-5.20;99.90
45096;DHT22;30858;51.108;8.068;2023-02-28T06:27:05;-5.20;99.90
45096;DHT22;30858;51.108;8.068;2023-02-28T06:29:34;-5.20;99.90
45096;DHT22;30858;51.108;8.068;2023-02-28T06:32:00;-5.20;99.90
45096;DHT22;30858;51.108;8.068;2023-02-28T06:34:26;-5.10;99.90
45096;DHT22;30858;51.108;8.068;2023-02-28T06:36:52;-5.00;99.90
45096;DHT22;30858;51.108;8.068;2023-02-28T06:39:17;-4.90;99.90
45096;DHT22;30858;51.108;8.068;2023-02-28T06:41:43;-4.90;99.90
45096;DHT22;30858;51.108;8.068;2023-02-28T06:44:16;-4.90;99.90
45096;DHT22;30858;51.108;8.068;2023-02-28T06:46:44;-4.90;99.90
45096;DHT22;30858;51.108;8.068;2023-02-28T06:49:10;-4.70;99.90
45096;DHT22;30858;51.108;8.068;2023-02-28T06:51:42;-4.70;99.90
45096;DHT22;30858;51.108;8.068;2023-02-28T06:54:12;-4.70;99.90
45096;DHT22;30858;51.108;8.068;2023-02-28T06:56:38;-4.70;99.90
45096;DHT22;30858;51.108;8.068;2023-02-28T06:59:04;-4.50;99.90
45096;DHT22;30858;51.108;8.068;2023-02-28T07:01:30;-4.50;99.90
45096;DHT22;30858;51.108;8.068;2023-02-28T07:03:57;-4.50;99.90
45096;DHT22;30858;51.108;8.068;2023-02-28T07:06:23;-4.60;99.90
45096;DHT22;30858;51.108;8.068;2023-02-28T07:08:53;-4.70;99.90
45096;DHT22;30858;51.108;8.068;2023-02-28T07:11:20;-4.60;99.90
45096;DHT22;30858;51.108;8.068;2023-02-28T07:13:48;-4.50;99.90
45096;DHT22;30858;51.108;8.068;2023-02-28T07:16:14;-4.50;99.90
45096;DHT22;30858;51.108;8.068;2023-02-28T07:18:39;-4.40;99.90
45096;DHT22;30858;51.108;8.068;2023-02-28T07:21:07;-4.50;99.90
45096;DHT22;30858;51.108;8.068;2023-02-28T07:23:33;-4.50;99.90
45096;DHT22;30858;51.108;8.068;2023-02-28T07:25:59;-4.60;99.90
45096;DHT22;30858;51.108;8.068;2023-02-28T07:28:25;-4.60;99.90
45096;DHT22;30858;51.108;8.068;2023-02-28T07:30:50;-4.60;99.90
45096;DHT22;30858;51.108;8.068;2023-02-28T07:33:16;-4.60;99.90
45096;DHT22;30858;51.108;8.068;2023-02-28T07:35:41;-4.50;99.90
45096;DHT22;30858;51.108;8.068;2023-02-28T07:38:07;-4.50;99.90
45096;DHT22;30858;51.108;8.068;2023-02-28T07:40:34;-4.40;99.90
45096;DHT22;30858;51.108;8.068;2023-02-28T07:43:00;-4.40;99.90
45096;DHT22;30858;51.108;8.068;2023-02-28T07:45:27;-4.30;99.90
45096;DHT22;30858;51.108;8.068;2023-02-28T07:47:54;-4.20;99.90
45096;DHT22;30858;51.108;8.068;2023-02-28T07:50:20;-4.10;99.90
45096;DHT22;30858;51.108;8.068;2023-02-28T07:52:46;-3.90;99.90
45096;DHT22;30858;51.108;8.068;2023-02-28T07:55:12;-3.60;99.90
45096;DHT22;30858;51.108;8.068;2023-02-28T07:57:39;-3.20;99.90
45096;DHT22;30858;51.108;8.068;2023-02-28T08:00:06;-2.70;99.90
45096;DHT22;30858;51.108;8.068;2023-02-28T08:02:34;-2.40;99.90
45096;DHT22;30858;51.108;8.068;2023-02-28T08:05:00;-2.00;99.90
45096;DHT22;30858;51.108;8.068;2023-02-28T08:07:26;-1.80;99.90
45096;DHT22;30858;51.108;8.068;2023-02-28T08:09:51;-1.30;99.90
45096;DHT22;30858;51.108;8.068;2023-02-28T08:12:17;-1.40;99.90
45096;DHT22;30858;51.108;8.068;2023-02-28T08:14:43;-0.90;99.90
45096;DHT22;30858;51.108;8.068;2023-02-28T08:17:09;-0.60;99.90
45096;DHT22;30858;51.108;8.068;2023-02-28T08:19:35;-0.20;99.90
45096;DHT22;30858;51.108;8.068;2023-02-28T08:22:01;0.20;99.90
45096;DHT22;30858;51.108;8.068;2023-02-28T08:24:26;-0.10;99.90
45096;DHT22;30858;51.108;8.068;2023-02-28T08:26:52;0.10;99.90
45096;DHT22;30858;51.108;8.068;2023-02-28T08:29:18;0.50;99.90
45096;DHT22;30858;51.108;8.068;2023-02-28T08:31:43;0.80;99.90
45096;DHT22;30858;51.108;8.068;2023-02-28T08:34:11;1.20;99.90
45096;DHT22;30858;51.108;8.068;2023-02-28T08:36:37;1.30;99.90
45096;DHT22;30858;51.108;8.068;2023-02-28T08:39:04;1.10;99.90
45096;DHT22;30858;51.108;8.068;2023-02-28T08:41:30;1.10;99.90
45096;DHT22;30858;51.108;8.068;2023-02-28T08:43:55;1.20;99.90
45096;DHT22;30858;51.108;8.068;2023-02-28T08:46:21;1.50;99.90
45096;DHT22;30858;51.108;8.068;2023-02-28T08:48:47;1.40;99.90
45096;DHT22;30858;51.108;8.068;2023-02-28T08:51:15;1.40;99.90
45096;DHT22;30858;51.108;8.068;2023-02-28T08:53:47;1.40;99.90
45096;DHT22;30858;51.108;8.068;2023-02-28T08:56:15;1.50;99.90
45096;DHT22;30858;51.108;8.068;2023-02-28T08:58:42;1.50;99.90
45096;DHT22;30858;51.108;8.068;2023-02-28T09:01:14;1.70;99.90
45096;DHT22;30858;51.108;8.068;2023-02-28T09:03:41;2.10;99.90
45096;DHT22;30858;51.108;8.068;2023-02-28T09:06:07;2.20;99.90
45096;DHT22;30858;51.108;8.068;2023-02-28T09:08:33;2.20;99.90
45096;DHT22;30858;51.108;8.068;2023-02-28T09:10:59;2.00;99.90
45096;DHT22;30858;51.108;8.068;2023-02-28T09:13:26;1.90;99.90
45096;DHT22;30858;51.108;8.068;2023-02-28T09:15:52;2.00;99.90
45096;DHT22;30858;51.108;8.068;2023-02-28T09:18:18;1.50;99.90
45096;DHT22;30858;51.108;8.068;2023-02-28T09:20:44;1.40;99.90
45096;DHT22;30858;51.108;8.068;2023-02-28T09:23:11;1.60;99.90
45096;DHT22;30858;51.108;8.068;2023-02-28T09:25:38;1.40;99.90
45096;DHT22;30858;51.108;8.068;2023-02-28T09:28:09;1.40;99.90
45096;DHT22;30858;51.108;8.068;2023-02-28T09:30:35;1.50;99.90
45096;DHT22;30858;51.108;8.068;2023-02-28T09:33:00;1.50;99.90
45096;DHT22;30858;51.108;8.068;2023-02-28T09:35:26;1.60;99.90
45096;DHT22;30858;51.108;8.068;2023-02-28T09:37:52;1.60;99.90
45096;DHT22;30858;51.108;8.068;2023-02-28T09:40:22;1.60;99.90
45096;DHT22;30858;51.108;8.068;2023-02-28T09:42:51;1.60;99.90
45096;DHT22;30858;51.108;8.068;2023-02-28T09:45:32;1.60;99.90
45096;DHT22;30858;51.108;8.068;2023-02-28T09:48:04;2.00;99.90
45096;DHT22;30858;51.108;8.068;2023-02-28T09:51:04;2.30;99.90
45096;DHT22;30858;51.108;8.068;2023-02-28T09:53:34;2.80;99.90
45096;DHT22;30858;51.108;8.068;2023-02-28T09:56:20;2.90;99.80
45096;DHT22;30858;51.108;8.068;2023-02-28T09:59:03;2.90;99.90
45096;DHT22;30858;51.108;8.068;2023-02-28T10:01:39;2.60;99.90
45096;DHT22;30858;51.108;8.068;2023-02-28T10:07:03;2.70;99.90
45096;DHT22;30858;51.108;8.068;2023-02-28T10:09:32;3.10;98.10
45096;DHT22;30858;51.108;8.068;2023-02-28T10:12:04;3.60;97.40
45096;DHT22;30858;51.108;8.068;2023-02-28T10:14:33;3.80;96.70
45096;DHT22;30858;51.108;8.068;2023-02-28T10:19:42;4.80;95.80
45096;DHT22;30858;51.108;8.068;2023-02-28T10:22:19;4.90;93.70
45096;DHT22;30858;51.108;8.068;2023-02-28T10:24:51;5.20;93.00
45096;DHT22;30858;51.108;8.068;2023-02-28T10:27:22;5.40;92.60
45096;DHT22;30858;51.108;8.068;2023-02-28T10:29:51;5.30;92.20
45096;DHT22;30858;51.108;8.068;2023-02-28T10:32:20;5.10;92.10
45096;DHT22;30858;51.108;8.068;2023-02-28T10:34:57;5.10;92.10
45096;DHT22;30858;51.108;8.068;2023-02-28T10:37:24;5.00;92.40
45096;DHT22;30858;51.108;8.068;2023-02-28T10:39:49;5.00;90.60
45096;DHT22;30858;51.108;8.068;2023-02-28T10:42:27;5.10;91.20
45096;DHT22;30858;51.108;8.068;2023-02-28T10:45:14;5.30;91.50
45096;DHT22;30858;51.108;8.068;2023-02-28T10:48:00;5.70;90.70
45096;DHT22;30858;51.108;8.068;2023-02-28T10:50:50;5.80;90.20
45096;DHT22;30858;51.108;8.068;2023-02-28T10:53:24;5.90;89.00
45096;DHT22;30858;51.108;8.068;2023-02-28T10:58:27;6.70;90.00
45096;DHT22;30858;51.108;8.068;2023-02-28T11:00:54;6.50;87.30
45096;DHT22;30858;51.108;8.068;2023-02-28T11:03:32;6.80;87.10
45096;DHT22;30858;51.108;8.068;2023-02-28T11:05:58;7.50;85.30
45096;DHT22;30858;51.108;8.068;2023-02-28T11:08:24;7.00;84.20
45096;DHT22;30858;51.108;8.068;2023-02-28T11:10:56;6.60;84.80
45096;DHT22;30858;51.108;8.068;2023-02-28T11:13:28;6.10;85.40
45096;DHT22;30858;51.108;8.068;2023-02-28T11:15:57;6.00;86.30
45096;DHT22;30858;51.108;8.068;2023-02-28T11:18:29;6.70;85.40
45096;DHT22;30858;51.108;8.068;2023-02-28T11:20:58;6.50;84.10
45096;DHT22;30858;51.108;8.068;2023-02-28T11:23:26;6.70;83.50
45096;DHT22;30858;51.108;8.068;2023-02-28T11:25:57;6.60;82.40
45096;DHT22;30858;51.108;8.068;2023-02-28T11:28:35;6.40;83.80
45096;DHT22;30858;51.108;8.068;2023-02-28T11:36:16;6.00;83.50
45096;DHT22;30858;51.108;8.068;2023-02-28T11:38:43;5.50;83.90
45096;DHT22;30858;51.108;8.068;2023-02-28T11:46:59;6.60;83.80
45096;DHT22;30858;51.108;8.068;2023-02-28T11:52:50;6.30;82.40
45096;DHT22;30858;51.108;8.068;2023-02-28T11:55:45;6.40;82.70
45096;DHT22;30858;51.108;8.068;2023-02-28T11:58:23;7.80;81.20
45096;DHT22;30858;51.108;8.068;2023-02-28T12:01:13;7.90;80.50
45096;DHT22;30858;51.108;8.068;2023-02-28T12:03:58;7.80;78.90
45096;DHT22;30858;51.108;8.068;2023-02-28T12:14:53;7.50;78.80
45096;DHT22;30858;51.108;8.068;2023-02-28T12:20:13;8.00;78.20
45096;DHT22;30858;51.108;8.068;2023-02-28T12:28:12;7.40;78.20
45096;DHT22;30858;51.108;8.068;2023-02-28T12:30:46;8.70;76.70
45096;DHT22;30858;51.108;8.068;2023-02-28T12:33:16;7.70;76.90
45096;DHT22;30858;51.108;8.068;2023-02-28T12:35:52;7.20;77.20
45096;DHT22;30858;51.108;8.068;2023-02-28T12:38:33;7.40;75.60
45096;DHT22;30858;51.108;8.068;2023-02-28T12:41:08;6.90;77.10
45096;DHT22;30858;51.108;8.068;2023-02-28T12:43:54;7.60;78.90
45096;DHT22;30858;51.108;8.068;2023-02-28T12:46:25;8.30;75.90
45096;DHT22;30858;51.108;8.068;2023-02-28T12:48:56;8.50;77.00
45096;DHT22;30858;51.108;8.068;2023-02-28T12:51:24;8.70;76.90
45096;DHT22;30858;51.108;8.068;2023-02-28T13:05:07;8.10;76.40
45096;DHT22;30858;51.108;8.068;2023-02-28T13:10:07;8.50;74.60
45096;DHT22;30858;51.108;8.068;2023-02-28T13:12:35;8.90;73.70
45096;DHT22;30858;51.108;8.068;2023-02-28T13:17:42;9.00;74.20
45096;DHT22;30858;51.108;8.068;2023-02-28T13:20:26;8.90;73.60
45096;DHT22;30858;51.108;8.068;2023-02-28T13:22:53;8.90;74.20
45096;DHT22;30858;51.108;8.068;2023-02-28T13:27:52;9.50;74.60
45096;DHT22;30858;51.108;8.068;2023-02-28T13:38:43;9.30;71.30
45096;DHT22;30858;51.108;8.068;2023-02-28T13:44:22;9.20;71.70
45096;DHT22;30858;51.108;8.068;2023-02-28T13:49:26;9.50;72.00
45096;DHT22;30858;51.108;8.068;2023-02-28T14:00:37;8.20;73.10
45096;DHT22;30858;51.108;8.068;2023-02-28T14:05:42;7.40;75.20
45096;DHT22;30858;51.108;8.068;2023-02-28T14:08:13;7.60;74.90
45096;DHT22;30858;51.108;8.068;2023-02-28T14:10:45;7.70;75.00
45096;DHT22;30858;51.108;8.068;2023-02-28T14:15:57;8.50;72.40
45096;DHT22;30858;51.108;8.068;2023-02-28T14:18:37;8.90;72.40
45096;DHT22;30858;51.108;8.068;2023-02-28T14:21:24;9.00;72.30
45096;DHT22;30858;51.108;8.068;2023-02-28T14:32:51;8.20;71.40
45096;DHT22;30858;51.108;8.068;2023-02-28T14:36:03;8.20;72.80
45096;DHT22;30858;51.108;8.068;2023-02-28T14:38:42;8.90;72.10
45096;DHT22;30858;51.108;8.068;2023-02-28T14:41:30;7.40;72.80
45096;DHT22;30858;51.108;8.068;2023-02-28T14:43:58;8.10;72.80
45096;DHT22;30858;51.108;8.068;2023-02-28T14:46:30;7.70;73.10
45096;DHT22;30858;51.108;8.068;2023-02-28T14:49:01;7.40;73.40
45096;DHT22;30858;51.108;8.068;2023-02-28T14:51:26;8.00;73.30
45096;DHT22;30858;51.108;8.068;2023-02-28T14:53:57;8.10;74.20
45096;DHT22;30858;51.108;8.068;2023-02-28T14:56:33;8.00;73.00
45096;DHT22;30858;51.108;8.068;2023-02-28T14:58:59;7.90;73.00
45096;DHT22;30858;51.108;8.068;2023-02-28T15:01:25;8.70;72.00
45096;DHT22;30858;51.108;8.068;2023-02-28T15:03:57;8.00;72.40
45096;DHT22;30858;51.108;8.068;2023-02-28T15:06:23;8.80;73.10
45096;DHT22;30858;51.108;8.068;2023-02-28T15:09:16;8.90;73.20
45096;DHT22;30858;51.108;8.068;2023-02-28T15:11:46;9.40;71.60
45096;DHT22;30858;51.108;8.068;2023-02-28T15:14:19;9.80;70.70
45096;DHT22;30858;51.108;8.068;2023-02-28T15:16:48;10.70;69.40
45096;DHT22;30858;51.108;8.068;2023-02-28T15:19:24;9.70;69.50
45096;DHT22;30858;51.108;8.068;2023-02-28T15:22:12;9.00;70.20
45096;DHT22;30858;51.108;8.068;2023-02-28T15:24:49;8.30;73.90
45096;DHT22;30858;51.108;8.068;2023-02-28T15:29:48;7.70;72.40
45096;DHT22;30858;51.108;8.068;2023-02-28T15:32:37;7.70;73.50
45096;DHT22;30858;51.108;8.068;2023-02-28T15:35:27;7.60;73.40
45096;DHT22;30858;51.108;8.068;2023-02-28T15:38:22;8.10;73.10
45096;DHT22;30858;51.108;8.068;2023-02-28T15:40:54;7.30;73.30
45096;DHT22;30858;51.108;8.068;2023-02-28T15:43:24;6.70;75.00
45096;DHT22;30858;51.108;8.068;2023-02-28T15:46:03;5.90;76.60
45096;DHT22;30858;51.108;8.068;2023-02-28T15:48:35;5.60;77.80
45096;DHT22;30858;51.108;8.068;2023-02-28T15:54:20;5.70;79.40
45096;DHT22;30858;51.108;8.068;2023-02-28T15:56:49;5.50;80.30
45096;DHT22;30858;51.108;8.068;2023-02-28T15:59:20;5.20;82.50
45096;DHT22;30858;51.108;8.068;2023-02-28T16:01:46;5.10;85.00
45096;DHT22;30858;51.108;8.068;2023-02-28T16:04:18;4.80;84.00
45096;DHT22;30858;51.108;8.068;2023-02-28T16:07:01;4.60;84.90
45096;DHT22;30858;51.108;8.068;2023-02-28T16:09:27;4.40;86.30
45096;DHT22;30858;51.108;8.068;2023-02-28T16:11:56;4.60;88.20
45096;DHT22;30858;51.108;8.068;2023-02-28T16:14:26;4.40;87.20
45096;DHT22;30858;51.108;8.068;2023-02-28T16:17:03;4.10;88.50
45096;DHT22;30858;51.108;8.068;2023-02-28T16:19:30;4.00;89.20
45096;DHT22;30858;51.108;8.068;2023-02-28T16:21:56;4.00;90.10
45096;DHT22;30858;51.108;8.068;2023-02-28T16:24:22;3.90;90.40
45096;DHT22;30858;51.108;8.068;2023-02-28T16:26:48;3.90;91.10
45096;DHT22;30858;51.108;8.068;2023-02-28T16:29:30;3.80;91.70
45096;DHT22;30858;51.108;8.068;2023-02-28T16:31:56;3.90;91.60
45096;DHT22;30858;51.108;8.068;2023-02-28T16:34:22;3.70;91.60
45096;DHT22;30858;51.108;8.068;2023-02-28T16:36:49;3.80;91.80
45096;DHT22;30858;51.108;8.068;2023-02-28T16:39:15;3.60;91.90
45096;DHT22;30858;51.108;8.068;2023-02-28T16:41:43;3.60;92.40
45096;DHT22;30858;51.108;8.068;2023-02-28T16:44:13;3.60;93.20
45096;DHT22;30858;51.108;8.068;2023-02-28T16:46:39;3.50;93.90
45096;DHT22;30858;51.108;8.068;2023-02-28T16:49:12;3.60;94.10
45096;DHT22;30858;51.108;8.068;2023-02-28T16:51:38;3.50;94.10
45096;DHT22;30858;51.108;8.068;2023-02-28T16:54:04;3.40;94.30
45096;DHT22;30858;51.108;8.068;2023-02-28T16:56:29;3.30;95.20
45096;DHT22;30858;51.108;8.068;2023-02-28T16:59:00;3.30;95.00
45096;DHT22;30858;51.108;8.068;2023-02-28T17:01:26;3.20;95.50
45096;DHT22;30858;51.108;8.068;2023-02-28T17:03:52;3.30;95.60
45096;DHT22;30858;51.108;8.068;2023-02-28T17:06:26;3.10;96.30
45096;DHT22;30858;51.108;8.068;2023-02-28T17:08:53;3.00;96.80
45096;DHT22;30858;51.108;8.068;2023-02-28T17:11:20;3.00;97.50
45096;DHT22;30858;51.108;8.068;2023-02-28T17:13:46;2.80;99.60
45096;DHT22;30858;51.108;8.068;2023-02-28T17:16:21;2.80;98.80
45096;DHT22;30858;51.108;8.068;2023-02-28T17:18:47;2.80;99.00
45096;DHT22;30858;51.108;8.068;2023-02-28T17:21:15;2.80;99.50
45096;DHT22;30858;51.108;8.068;2023-02-28T17:23:41;2.50;99.90
45096;DHT22;30858;51.108;8.068;2023-02-28T17:26:12;2.50;99.90
45096;DHT22;30858;51.108;8.068;2023-02-28T17:28:37;2.20;99.90
45096;DHT22;30858;51.108;8.068;2023-02-28T17:31:03;2.30;99.90
45096;DHT22;30858;51.108;8.068;2023-02-28T17:33:28;2.20;99.90
45096;DHT22;30858;51.108;8.068;2023-02-28T17:35:54;2.20;99.90
45096;DHT22;30858;51.108;8.068;2023-02-28T17:38:20;2.10;99.90
45096;DHT22;30858;51.108;8.068;2023-02-28T17:40:48;2.00;99.90
45096;DHT22;30858;51.108;8.068;2023-02-28T17:43:14;1.90;99.90
45096;DHT22;30858;51.108;8.068;2023-02-28T17:45:40;1.70;99.90
45096;DHT22;30858;51.108;8.068;2023-02-28T17:48:06;1.60;99.90
45096;DHT22;30858;51.108;8.068;2023-02-28T17:50:32;1.60;99.90
45096;DHT22;30858;51.108;8.068;2023-02-28T17:52:58;1.50;99.90
45096;DHT22;30858;51.108;8.068;2023-02-28T17:55:24;1.40;99.90
45096;DHT22;30858;51.108;8.068;2023-02-28T17:57:49;1.50;99.90
45096;DHT22;30858;51.108;8.068;2023-02-28T18:00:16;1.40;99.90
45096;DHT22;30858;51.108;8.068;2023-02-28T18:02:43;1.30;99.90
45096;DHT22;30858;51.108;8.068;2023-02-28T18:05:08;1.10;99.90
45096;DHT22;30858;51.108;8.068;2023-02-28T18:07:36;1.00;99.90